Terminal Aerodrome Forecast
Issued by NWS Jackson, MS

Home | Current Version | Previous Version | Text Only | Print | Product List | Glossary On
Versions: 1 2 3 4 5 6 7 8 9 10 11 12 13
000
FTUS44 KJAN 301100
TAFGWO
TAF
KGWO 301136Z 3012/3112 18005KT P6SM VCSH FEW040 OVC120
     FM301500 16007KT P6SM VCSH BKN025 OVC035
     FM301800 17009KT 3SM SHRA VCTS BKN025 OVC035CB
     FM310000 17006KT P6SM VCSH BKN040
     FM310400 18005KT 5SM BR VCSH OVC008=

USA.gov is the U.S. government's official web portal to all federal, state and local government web resources and services.